Time;durP1;ratioP1;P1;durP2;ratioP2;P2;SDS_P1;SDS_P2;PMS_P1;PMS_P2;Temp;Humidity;BMP_temperature;BMP_pressure;BME280_temperature;BME280_humidity;BME280_pressure;Samples;Min_cycle;Max_cycle;Signal;HPM_P1;HPM_P2
2023/02/26 07:19:24;;;;;;;;;;;;;;;-0.25;72.08;97892.88;6211772;22;19927;-62
2023/02/26 07:21:49;;;;;;;;;;;;;;;-0.22;71.78;97894.50;6210496;23;19916;-62
2023/02/26 07:24:15;;;;;;;;;;;;;;;-0.16;71.12;97891.75;6211026;23;19912;-61
2023/02/26 07:26:40;;;;;;;;;;;;;;;-0.13;71.58;97900.25;6210686;23;20339;-61
2023/02/26 07:29:05;;;;;;;;;;;;;;;-0.08;71.02;97900.09;6212883;23;20287;-62
2023/02/26 07:31:30;;;;;;;;;;;;;;;-0.09;69.84;97898.41;6214017;23;20314;-62
2023/02/26 07:33:56;;;;;;;;;;;;;;;-0.08;70.98;97906.09;6212496;23;20251;-58
2023/02/26 07:36:21;;;;;;;;;;;;;;;-0.02;70.40;97905.06;6211330;23;20279;-61
2023/02/26 07:38:46;;;;;;;;;;;;;;;-0.03;69.68;97908.53;6211178;23;19970;-62
2023/02/26 07:41:11;;;;;;;;;;;;;;;0.01;70.02;97917.88;6212594;23;19908;-63
2023/02/26 07:43:37;;;;;;;;;;;;;;;0.05;70.23;97916.03;6213853;23;19912;-62
2023/02/26 07:46:02;;;;;;;;;;;;;;;0.06;70.84;97923.72;6213058;23;19908;-63
2023/02/26 07:48:27;;;;;;;;;;;;;;;0.13;70.30;97930.38;6186846;23;19919;-62
2023/02/26 07:50:53;;;;;;;;;;;;;;;0.06;69.91;97930.59;6212799;23;19915;-62
2023/02/26 07:53:18;;;;;;;;;;;;;;;0.14;70.64;97932.06;6212787;23;19912;-63
2023/02/26 07:55:43;;;;;;;;;;;;;;;0.21;70.27;97928.41;6186404;23;20038;-62
2023/02/26 07:58:08;;;;;;;;;;;;;;;0.29;70.29;97935.91;6212751;23;19919;-61
2023/02/26 08:00:33;;;;;;;;;;;;;;;0.26;70.47;97941.16;6210797;23;19908;-63
2023/02/26 08:02:59;;;;;;;;;;;;;;;0.41;70.65;97939.81;6213658;23;19919;-62
2023/02/26 08:05:24;;;;;;;;;;;;;;;0.44;69.56;97945.72;6212059;23;19911;-62
2023/02/26 08:07:49;;;;;;;;;;;;;;;0.54;70.42;97956.59;6213283;23;19908;-62
2023/02/26 08:10:14;;;;;;;;;;;;;;;0.53;70.86;97947.16;6212273;23;20102;-63
2023/02/26 08:12:40;;;;;;;;;;;;;;;0.53;70.32;97959.25;6212324;23;19909;-62
2023/02/26 08:15:05;;;;;;;;;;;;;;;0.53;71.28;97959.25;6212628;23;19916;-61
2023/02/26 08:17:30;;;;;;;;;;;;;;;0.60;71.18;97956.41;6184838;23;19995;-62
2023/02/26 08:19:55;;;;;;;;;;;;;;;0.62;71.93;97961.50;6212808;23;20343;-63
2023/02/26 08:22:22;;;;;;;;;;;;;;;0.78;71.71;97961.84;6212269;23;20332;-63
2023/02/26 08:24:47;;;;;;;;;;;;;;;0.64;70.84;97965.72;6187620;23;19908;-64
2023/02/26 08:27:12;;;;;;;;;;;;;;;0.69;70.23;97975.94;6213316;23;20347;-64
2023/02/26 08:29:38;;;;;;;;;;;;;;;0.67;69.87;97975.97;6187388;23;20407;-64
2023/02/26 08:32:03;;;;;;;;;;;;;;;0.60;71.39;97965.88;6212468;23;20251;-63
2023/02/26 08:34:28;;;;;;;;;;;;;;;0.55;70.42;97976.38;6212686;23;19907;-64
2023/02/26 08:36:54;;;;;;;;;;;;;;;0.50;71.19;97983.41;6186835;23;19919;-65
2023/02/26 08:39:19;;;;;;;;;;;;;;;0.56;71.05;97977.22;6207277;23;20331;-64
2023/02/26 08:41:44;;;;;;;;;;;;;;;0.71;71.07;97972.38;6210375;23;20730;-64
2023/02/26 08:44:09;;;;;;;;;;;;;;;0.77;69.03;97978.25;6213013;23;19908;-64
2023/02/26 08:46:35;;;;;;;;;;;;;;;0.83;69.62;97984.06;6212455;23;19965;-63
2023/02/26 08:49:00;;;;;;;;;;;;;;;0.79;69.21;97990.22;6213080;23;19947;-64
2023/02/26 08:51:25;;;;;;;;;;;;;;;0.93;70.24;97997.50;6213919;23;20332;-64
2023/02/26 08:53:50;;;;;;;;;;;;;;;1.04;70.53;98003.16;6213868;23;19908;-64
2023/02/26 08:56:16;;;;;;;;;;;;;;;1.10;68.51;97999.50;6212986;23;19943;-64
2023/02/26 08:58:41;;;;;;;;;;;;;;;1.23;69.00;98012.84;6187215;23;19908;-64
2023/02/26 09:01:06;;;;;;;;;;;;;;;1.35;68.54;98015.03;6212358;23;19908;-64
2023/02/26 09:03:31;;;;;;;;;;;;;;;1.47;67.75;98017.19;6213567;23;19916;-64
2023/02/26 09:05:56;;;;;;;;;;;;;;;1.62;67.72;98016.66;6184501;23;19915;-65
2023/02/26 09:08:22;;;;;;;;;;;;;;;1.77;66.71;98023.00;6213580;23;19912;-64
2023/02/26 09:10:47;;;;;;;;;;;;;;;1.90;66.08;98021.66;6213269;23;19919;-64
2023/02/26 09:13:12;;;;;;;;;;;;;;;2.04;65.91;98033.25;6213727;23;19908;-65
2023/02/26 09:15:37;;;;;;;;;;;;;;;2.18;65.39;98036.16;6212425;23;20350;-63
2023/02/26 09:18:03;;;;;;;;;;;;;;;2.31;63.80;98039.16;6213432;23;20316;-64
2023/02/26 09:20:28;;;;;;;;;;;;;;;2.50;64.08;98037.53;6212764;23;19935;-62
2023/02/26 09:22:53;;;;;;;;;;;;;;;2.67;64.72;98041.22;6212906;23;19934;-63
2023/02/26 09:25:18;;;;;;;;;;;;;;;2.77;64.48;98045.97;6215170;23;19935;-63
2023/02/26 09:27:43;;;;;;;;;;;;;;;2.87;63.80;98045.59;6215169;23;19913;-64
2023/02/26 09:30:09;;;;;;;;;;;;;;;2.95;62.87;98046.97;6215212;23;19954;-63
2023/02/26 09:32:34;;;;;;;;;;;;;;;3.05;62.57;98058.66;6188048;23;19912;-64
2023/02/26 09:34:59;;;;;;;;;;;;;;;3.22;61.96;98054.53;6214465;23;19927;-63
2023/02/26 09:37:25;;;;;;;;;;;;;;;3.33;61.44;98054.91;6215241;23;20093;-63
2023/02/26 09:39:50;;;;;;;;;;;;;;;3.47;60.28;98062.97;6215828;23;20318;-63
2023/02/26 09:42:18;;;;;;;;;;;;;;;3.64;59.51;98053.63;6214720;23;19915;-62
2023/02/26 09:44:43;;;;;;;;;;;;;;;3.81;58.56;98051.97;6213558;23;19911;-63
2023/02/26 09:47:22;;;;;;;;;;;;;;;3.98;57.49;98063.38;6188350;23;19943;-63
2023/02/26 09:49:50;;;;;;;;;;;;;;;4.01;58.25;98066.69;6215369;23;19907;-62
2023/02/26 09:52:18;;;;;;;;;;;;;;;4.03;57.16;98069.22;6214804;23;20332;-62
2023/02/26 09:54:46;;;;;;;;;;;;;;;4.08;56.88;98063.81;6187781;23;20006;-62
2023/02/26 09:57:12;;;;;;;;;;;;;;;4.05;56.30;98064.78;6186418;23;19908;-64
2023/02/26 09:59:38;;;;;;;;;;;;;;;4.11;56.70;98076.66;6187833;23;19930;-62
2023/02/26 10:02:03;;;;;;;;;;;;;;;4.17;56.46;98079.81;6213612;23;20332;-63
2023/02/26 10:04:47;;;;;;;;;;;;;;;4.17;54.31;98079.00;6214919;23;19974;-63
2023/02/26 10:07:15;;;;;;;;;;;;;;;4.24;54.70;98083.84;6215116;23;20251;-64
2023/02/26 10:09:40;;;;;;;;;;;;;;;4.29;54.55;98091.41;6188008;23;20414;-64
2023/02/26 10:12:31;;;;;;;;;;;;;;;4.00;53.20;98088.34;6213258;23;19943;-64
2023/02/26 10:15:15;;;;;;;;;;;;;;;4.13;52.29;98093.88;6208485;23;20351;-63
2023/02/26 10:18:01;;;;;;;;;;;;;;;4.17;52.46;98094.56;6214183;23;19908;-64
2023/02/26 10:20:31;;;;;;;;;;;;;;;4.32;52.85;98104.25;6187477;23;19922;-65
2023/02/26 10:22:56;;;;;;;;;;;;;;;4.46;51.56;98096.69;6187298;23;19919;-63
2023/02/26 10:25:21;;;;;;;;;;;;;;;4.51;50.70;98099.91;6214586;23;19908;-63
2023/02/26 10:28:05;;;;;;;;;;;;;;;4.62;51.37;98093.38;6188095;23;19912;-64
2023/02/26 10:30:34;;;;;;;;;;;;;;;4.73;50.30;98097.16;6187196;23;19908;-65
2023/02/26 10:33:02;;;;;;;;;;;;;;;4.78;50.99;98099.53;6213344;23;19915;-64
2023/02/26 10:35:28;;;;;;;;;;;;;;;4.85;50.75;98106.16;6213150;23;19908;-64
2023/02/26 10:37:57;;;;;;;;;;;;;;;4.93;50.16;98106.63;6188161;23;19908;-66
2023/02/26 10:40:29;;;;;;;;;;;;;;;5.03;49.83;98117.44;6187425;23;19919;-63
2023/02/26 10:42:58;;;;;;;;;;;;;;;5.12;49.78;98110.94;6213807;23;19912;-64
2023/02/26 10:45:33;;;;;;;;;;;;;;;5.08;49.82;98117.22;6162135;23;20079;-66
2023/02/26 10:48:16;;;;;;;;;;;;;;;5.00;49.70;98121.03;6214176;23;19914;-64
2023/02/26 10:50:49;;;;;;;;;;;;;;;4.85;49.59;98121.75;6214380;23;19908;-64
2023/02/26 10:53:14;;;;;;;;;;;;;;;4.86;50.02;98120.84;6187130;23;19907;-64
2023/02/26 10:55:40;;;;;;;;;;;;;;;4.91;49.57;98118.84;6187307;23;19931;-63
2023/02/26 10:58:13;;;;;;;;;;;;;;;5.15;48.20;98119.44;6185901;23;19983;-63
2023/02/26 11:00:38;;;;;;;;;;;;;;;5.70;47.95;98110.69;6187093;23;20346;-63
2023/02/26 11:03:04;;;;;;;;;;;;;;;6.08;46.75;98119.16;6212123;23;19912;-64
2023/02/26 11:05:30;;;;;;;;;;;;;;;6.49;46.80;98110.94;6185262;23;19923;-63
2023/02/26 11:08:00;;;;;;;;;;;;;;;6.87;46.36;98118.47;6185748;23;19908;-64
2023/02/26 11:10:27;;;;;;;;;;;;;;;6.82;45.23;98104.84;6185370;23;19931;-64
2023/02/26 11:12:52;;;;;;;;;;;;;;;6.48;45.67;98109.28;6213197;23;20336;-63
2023/02/26 11:15:21;;;;;;;;;;;;;;;6.36;45.77;98115.13;6212908;23;20038;-64
2023/02/26 11:17:47;;;;;;;;;;;;;;;6.24;45.31;98114.00;6186344;23;20550;-63
2023/02/26 11:20:14;;;;;;;;;;;;;;;6.21;45.29;98119.38;6213082;23;19932;-64
2023/02/26 11:22:39;;;;;;;;;;;;;;;6.12;46.24;98122.44;6186383;23;19923;-64
2023/02/26 11:25:05;;;;;;;;;;;;;;;6.15;47.18;98117.09;6185573;23;19908;-63
2023/02/26 11:27:31;;;;;;;;;;;;;;;6.46;46.34;98115.47;6186865;23;19908;-63
2023/02/26 11:29:57;;;;;;;;;;;;;;;6.76;44.29;98121.66;6186353;23;19919;-63
2023/02/26 11:32:29;;;;;;;;;;;;;;;7.00;43.21;98113.41;6185592;23;19928;-66
2023/02/26 11:34:54;;;;;;;;;;;;;;;7.43;42.89;98111.81;6186701;23;19915;-63
2023/02/26 11:37:21;;;;;;;;;;;;;;;7.77;42.88;98115.94;6211773;23;19912;-64
2023/02/26 11:39:46;;;;;;;;;;;;;;;7.94;43.65;98112.31;6186428;23;20363;-64
2023/02/26 11:42:11;;;;;;;;;;;;;;;8.33;43.17;98114.34;6212349;23;19951;-63
2023/02/26 11:44:38;;;;;;;;;;;;;;;8.84;43.06;98105.97;6213418;23;20377;-64
2023/02/26 11:47:09;;;;;;;;;;;;;;;9.05;41.78;98101.19;6186206;23;19908;-64
2023/02/26 11:49:34;;;;;;;;;;;;;;;8.84;40.02;98102.53;6186941;23;19914;-64
2023/02/26 11:52:04;;;;;;;;;;;;;;;8.52;40.08;98108.00;6184488;23;19912;-63
2023/02/26 11:54:29;;;;;;;;;;;;;;;8.28;40.81;98105.91;6185266;23;19912;-62
2023/02/26 11:57:01;;;;;;;;;;;;;;;8.14;40.71;98111.13;6186516;23;19915;-64
2023/02/26 11:59:27;;;;;;;;;;;;;;;7.99;39.84;98104.22;6185388;23;19994;-64
2023/02/26 12:01:52;;;;;;;;;;;;;;;8.29;40.73;98097.16;6182596;23;20005;-64
2023/02/26 12:04:18;;;;;;;;;;;;;;;8.52;40.67;98097.53;6210616;23;19908;-65
2023/02/26 12:06:44;;;;;;;;;;;;;;;8.65;39.32;98088.00;6186359;23;19918;-65
2023/02/26 12:09:13;;;;;;;;;;;;;;;8.42;39.99;98084.19;6185983;23;19916;-64
2023/02/26 12:11:50;;;;;;;;;;;;;;;8.32;39.38;98085.66;6187235;23;19961;-65
2023/02/26 12:14:15;;;;;;;;;;;;;;;8.70;39.35;98083.31;6185949;23;20332;-64
2023/02/26 12:16:50;;;;;;;;;;;;;;;8.93;39.15;98081.88;6212724;23;19912;-64
2023/02/26 12:19:22;;;;;;;;;;;;;;;8.64;38.41;98085.50;6186600;23;19991;-64
2023/02/26 12:21:53;;;;;;;;;;;;;;;8.56;39.56;98083.34;6213179;23;19912;-64
2023/02/26 12:24:18;;;;;;;;;;;;;;;9.11;38.26;98087.69;6186866;23;20239;-64
2023/02/26 12:27:13;;;;;;;;;;;;;;;9.74;37.49;98081.81;6213845;23;19908;-63
2023/02/26 12:29:38;;;;;;;;;;;;;;;9.45;36.47;98078.47;6105167;23;19909;-63
2023/02/26 12:32:14;;;;;;;;;;;;;;;9.35;37.27;98084.44;6210368;23;19979;-63
2023/02/26 12:34:54;;;;;;;;;;;;;;;9.48;37.64;98080.91;6185903;23;19908;-62
2023/02/26 12:37:22;;;;;;;;;;;;;;;9.48;36.50;98095.78;6187422;23;19955;-65
2023/02/26 12:39:47;;;;;;;;;;;;;;;9.42;37.87;98093.56;6212118;23;19915;-64
2023/02/26 12:42:17;;;;;;;;;;;;;;;9.34;37.31;98094.06;6210124;23;19916;-65
2023/02/26 12:44:42;;;;;;;;;;;;;;;9.15;36.25;98096.19;6184441;23;20228;-62
2023/02/26 12:47:23;;;;;;;;;;;;;;;8.92;36.59;98087.22;6212895;23;20328;-64
2023/02/26 12:49:54;;;;;;;;;;;;;;;9.25;35.54;98097.25;6213991;23;19937;-62
2023/02/26 12:52:19;;;;;;;;;;;;;;;8.57;38.61;98103.34;6213450;23;19908;-62
2023/02/26 12:54:44;;;;;;;;;;;;;;;8.40;38.25;98111.38;6211530;23;20684;-63
2023/02/26 12:57:20;;;;;;;;;;;;;;;8.26;38.04;98107.81;6213428;23;19908;-63
2023/02/26 12:59:45;;;;;;;;;;;;;;;8.15;37.48;98104.97;6187928;23;20420;-63
2023/02/26 13:02:28;;;;;;;;;;;;;;;8.15;38.86;98099.75;6215424;23;19912;-63
2023/02/26 13:05:00;;;;;;;;;;;;;;;8.32;38.37;98107.41;6214220;23;20270;-63
2023/02/26 13:07:48;;;;;;;;;;;;;;;8.23;37.94;98097.53;6188137;23;19912;-66
2023/02/26 13:10:19;;;;;;;;;;;;;;;7.82;37.98;98106.06;6215618;23;19908;-64
2023/02/26 13:13:07;;;;;;;;;;;;;;;7.57;40.55;98113.63;6215576;23;19978;-63
2023/02/26 13:15:44;;;;;;;;;;;;;;;7.39;39.67;98120.75;6187070;23;19915;-63
2023/02/26 13:18:10;;;;;;;;;;;;;;;7.41;39.58;98123.28;6214232;23;20054;-64
2023/02/26 13:20:35;;;;;;;;;;;;;;;7.95;37.79;98110.56;6214908;23;20336;-63
2023/02/26 13:23:02;;;;;;;;;;;;;;;7.55;37.39;98121.56;6163338;23;19916;-66
2023/02/26 13:25:31;;;;;;;;;;;;;;;7.47;38.14;98117.72;6186752;23;19932;-63
2023/02/26 13:27:56;;;;;;;;;;;;;;;7.40;37.97;98126.81;6214329;23;19908;-64
2023/02/26 13:30:26;;;;;;;;;;;;;;;8.12;37.11;98126.09;6188072;23;19916;-65
2023/02/26 13:32:53;;;;;;;;;;;;;;;8.17;35.46;98129.25;6188713;23;20230;-65
2023/02/26 13:35:19;;;;;;;;;;;;;;;8.20;36.47;98123.00;6187858;23;19987;-66
2023/02/26 13:37:45;;;;;;;;;;;;;;;8.53;36.23;98130.59;6184826;23;19915;-63
2023/02/26 13:40:23;;;;;;;;;;;;;;;9.20;34.60;98121.13;6187939;23;19908;-65
2023/02/26 13:42:57;;;;;;;;;;;;;;;8.45;35.63;98132.84;6211933;23;19916;-64
2023/02/26 13:45:31;;;;;;;;;;;;;;;9.78;34.26;98121.72;6213271;23;19912;-63
2023/02/26 13:48:00;;;;;;;;;;;;;;;9.90;33.95;98125.28;6187042;23;19908;-64
2023/02/26 13:50:25;;;;;;;;;;;;;;;9.24;34.70;98121.78;6187727;23;19908;-64
2023/02/26 13:52:51;;;;;;;;;;;;;;;8.80;35.10;98123.63;6215014;23;20431;-64
2023/02/26 13:55:35;;;;;;;;;;;;;;;8.16;36.72;98127.56;6163236;23;20254;-64
2023/02/26 13:58:14;;;;;;;;;;;;;;;8.00;36.04;98132.03;6214540;23;19935;-64
2023/02/26 14:00:41;;;;;;;;;;;;;;;9.48;34.21;98132.44;6187324;23;19946;-64
2023/02/26 14:03:12;;;;;;;;;;;;;;;10.40;32.88;98134.16;6188977;23;19919;-62
2023/02/26 14:05:51;;;;;;;;;;;;;;;11.07;31.69;98137.28;6214137;23;19918;-64
2023/02/26 14:08:16;;;;;;;;;;;;;;;11.54;30.79;98125.13;6188357;23;19908;-65
2023/02/26 14:10:45;;;;;;;;;;;;;;;11.90;30.32;98123.34;6213337;23;19908;-64
2023/02/26 14:13:17;;;;;;;;;;;;;;;12.32;29.95;98139.47;6187977;23;19939;-65
2023/02/26 14:15:48;;;;;;;;;;;;;;;12.77;29.15;98132.41;6186057;23;19907;-64
2023/02/26 14:18:28;;;;;;;;;;;;;;;12.06;31.12;98131.75;6187367;23;19962;-64
2023/02/26 14:21:10;;;;;;;;;;;;;;;10.88;33.87;98148.25;6214163;23;19979;-64
2023/02/26 14:23:35;;;;;;;;;;;;;;;10.65;33.43;98144.63;6187105;23;19916;-64
2023/02/26 14:26:02;;;;;;;;;;;;;;;11.35;31.39;98143.16;6186667;23;20229;-64
2023/02/26 14:28:27;;;;;;;;;;;;;;;11.94;30.94;98140.59;6186914;23;19908;-64
2023/02/26 14:31:13;;;;;;;;;;;;;;;11.79;29.88;98141.69;6214122;23;20026;-64
2023/02/26 14:33:46;;;;;;;;;;;;;;;10.89;31.98;98152.53;6212690;23;19908;-65
2023/02/26 14:36:34;;;;;;;;;;;;;;;9.96;32.61;98157.16;6187219;23;19915;-64
2023/02/26 14:39:00;;;;;;;;;;;;;;;9.24;33.65;98167.09;6197267;23;19930;-64
2023/02/26 14:41:27;;;;;;;;;;;;;;;8.67;34.42;98180.28;6186897;23;19912;-64
2023/02/26 14:44:01;;;;;;;;;;;;;;;8.83;34.01;98174.94;6186437;23;19912;-63
2023/02/26 14:46:26;;;;;;;;;;;;;;;8.49;33.95;98176.97;6187278;23;19915;-64
2023/02/26 14:48:51;;;;;;;;;;;;;;;9.19;33.15;98176.19;6213715;23;19911;-63
2023/02/26 14:51:16;;;;;;;;;;;;;;;9.31;33.05;98179.78;6184984;23;19923;-64
2023/02/26 14:53:45;;;;;;;;;;;;;;;9.63;33.40;98180.31;6210628;23;19908;-63
2023/02/26 14:56:15;;;;;;;;;;;;;;;8.90;34.88;98184.06;6186598;23;19915;-63
2023/02/26 14:58:46;;;;;;;;;;;;;;;8.55;35.03;98188.84;6186591;23;19912;-64
2023/02/26 15:01:44;;;;;;;;;;;;;;;8.35;36.13;98194.41;6213333;23;19982;-64
2023/02/26 15:04:12;;;;;;;;;;;;;;;7.65;36.25;98197.59;6121172;23;19912;-63
2023/02/26 15:06:42;;;;;;;;;;;;;;;7.40;36.22;98202.47;6213280;23;19911;-64
2023/02/26 15:09:11;;;;;;;;;;;;;;;7.37;36.61;98195.69;6186650;23;19907;-64
2023/02/26 15:11:36;;;;;;;;;;;;;;;7.54;36.48;98197.34;6213093;23;19908;-64
2023/02/26 15:14:12;;;;;;;;;;;;;;;6.89;38.18;98211.31;6212952;23;19912;-64
2023/02/26 15:16:40;;;;;;;;;;;;;;;6.59;38.10;98202.50;6186953;23;19915;-64
2023/02/26 15:19:06;;;;;;;;;;;;;;;6.32;38.43;98215.19;6212921;23;19911;-63
2023/02/26 15:21:37;;;;;;;;;;;;;;;6.22;38.98;98227.84;6210692;23;19932;-64
2023/02/26 15:24:03;;;;;;;;;;;;;;;6.30;40.02;98228.31;6212523;23;19908;-64
2023/02/26 15:26:29;;;;;;;;;;;;;;;6.24;39.46;98231.22;6212434;23;19958;-63
2023/02/26 15:28:54;;;;;;;;;;;;;;;6.19;40.46;98241.00;6184920;23;19962;-65
2023/02/26 15:31:20;;;;;;;;;;;;;;;6.06;40.06;98248.63;6212364;23;19915;-64
2023/02/26 15:33:48;;;;;;;;;;;;;;;5.56;40.75;98256.22;6212703;23;19935;-63
2023/02/26 15:36:16;;;;;;;;;;;;;;;5.36;40.85;98255.41;6212478;23;19908;-63
2023/02/26 15:38:45;;;;;;;;;;;;;;;5.40;41.23;98250.91;6162007;23;19953;-64
2023/02/26 15:41:11;;;;;;;;;;;;;;;5.73;40.41;98258.88;6186777;23;19908;-63
2023/02/26 15:43:36;;;;;;;;;;;;;;;5.85;39.85;98247.88;6185787;23;20314;-63
2023/02/26 15:46:01;;;;;;;;;;;;;;;5.65;40.68;98266.22;6186326;23;19923;-63
2023/02/26 15:48:28;;;;;;;;;;;;;;;5.29;39.76;98263.56;6185971;23;20371;-64
2023/02/26 15:50:55;;;;;;;;;;;;;;;5.00;40.39;98274.38;6185142;23;19930;-64
2023/02/26 15:53:23;;;;;;;;;;;;;;;4.86;41.07;98270.72;6211948;23;20463;-64
2023/02/26 15:55:49;;;;;;;;;;;;;;;4.78;42.16;98284.03;6186245;23;19908;-64
2023/02/26 15:58:18;;;;;;;;;;;;;;;4.56;42.38;98278.09;6186926;23;19911;-64
2023/02/26 16:00:43;;;;;;;;;;;;;;;4.65;42.62;98273.34;6186037;23;20002;-63
2023/02/26 16:03:08;;;;;;;;;;;;;;;4.65;42.81;98288.09;6212488;23;20352;-64
2023/02/26 16:05:33;;;;;;;;;;;;;;;4.60;42.76;98285.69;6186448;23;20349;-64
2023/02/26 16:07:59;;;;;;;;;;;;;;;4.51;42.56;98289.53;6186969;23;19908;-64
2023/02/26 16:10:42;;;;;;;;;;;;;;;4.45;43.54;98287.19;6187070;23;19915;-64
2023/02/26 16:13:09;;;;;;;;;;;;;;;4.38;43.51;98296.16;6185473;23;20439;-65
2023/02/26 16:15:36;;;;;;;;;;;;;;;4.28;43.79;98290.50;6185780;23;20302;-63
2023/02/26 16:18:03;;;;;;;;;;;;;;;4.24;45.45;98295.88;6186922;23;19912;-64
2023/02/26 16:20:28;;;;;;;;;;;;;;;4.20;44.58;98295.19;6186205;23;19961;-63
2023/02/26 16:22:54;;;;;;;;;;;;;;;4.11;45.06;98302.50;6186072;23;19916;-63
2023/02/26 16:25:39;;;;;;;;;;;;;;;4.00;46.07;98302.94;6185875;23;19983;-64
2023/02/26 16:28:05;;;;;;;;;;;;;;;3.87;45.15;98310.34;6186902;23;19916;-64
2023/02/26 16:30:35;;;;;;;;;;;;;;;3.80;46.01;98320.13;6186073;23;19947;-63
2023/02/26 16:33:00;;;;;;;;;;;;;;;3.64;45.78;98313.84;6186537;23;19939;-63
2023/02/26 16:35:27;;;;;;;;;;;;;;;3.60;47.32;98316.63;6187752;23;20213;-63
2023/02/26 16:37:53;;;;;;;;;;;;;;;3.51;46.67;98323.88;6188603;23;19915;-63
2023/02/26 16:40:26;;;;;;;;;;;;;;;3.44;47.86;98339.69;6214937;23;19908;-65
2023/02/26 16:43:05;;;;;;;;;;;;;;;3.30;46.53;98335.91;6188288;23;20398;-63
2023/02/26 16:45:30;;;;;;;;;;;;;;;3.24;47.82;98340.47;6187660;23;19939;-63
2023/02/26 16:47:55;;;;;;;;;;;;;;;3.15;47.78;98345.97;6188457;23;20205;-63
2023/02/26 16:50:23;;;;;;;;;;;;;;;3.05;48.43;98351.47;6188469;23;19914;-63
2023/02/26 16:52:57;;;;;;;;;;;;;;;2.98;48.65;98349.16;6188286;23;19915;-63
2023/02/26 16:55:23;;;;;;;;;;;;;;;2.93;49.08;98367.47;6214672;23;19921;-63
2023/02/26 16:57:49;;;;;;;;;;;;;;;2.79;49.20;98364.53;6188073;23;19907;-64
2023/02/26 17:00:16;;;;;;;;;;;;;;;2.73;48.61;98372.50;6188386;23;20382;-63
2023/02/26 17:02:43;;;;;;;;;;;;;;;2.53;48.61;98376.59;6188522;23;19946;-64
2023/02/26 17:05:20;;;;;;;;;;;;;;;2.45;49.24;98368.25;6163246;23;20327;-64
2023/02/26 17:07:46;;;;;;;;;;;;;;;2.30;50.39;98379.94;6187150;23;20251;-63
2023/02/26 17:10:22;;;;;;;;;;;;;;;2.24;49.55;98387.06;6188545;23;19933;-62
2023/02/26 17:12:48;;;;;;;;;;;;;;;2.22;50.30;98388.84;6187916;23;19954;-64
2023/02/26 17:15:17;;;;;;;;;;;;;;;2.21;50.76;98397.53;6189283;23;19908;-63
2023/02/26 17:17:43;;;;;;;;;;;;;;;2.20;51.52;98400.97;6214163;23;19908;-63
2023/02/26 17:20:09;;;;;;;;;;;;;;;2.18;50.68;98402.78;6188768;23;19995;-64
2023/02/26 17:22:34;;;;;;;;;;;;;;;2.12;50.25;98407.25;6215196;23;19995;-63
2023/02/26 17:25:00;;;;;;;;;;;;;;;2.05;52.34;98410.94;6189651;23;20324;-63
2023/02/26 17:27:32;;;;;;;;;;;;;;;1.99;52.41;98413.69;6211511;23;19963;-64
2023/02/26 17:29:58;;;;;;;;;;;;;;;1.96;51.82;98416.41;6184715;23;19955;-61
2023/02/26 17:32:25;;;;;;;;;;;;;;;1.95;53.08;98421.59;6162305;23;19927;-62
2023/02/26 17:34:50;;;;;;;;;;;;;;;1.92;51.96;98417.38;6188297;23;19995;-61
2023/02/26 17:37:16;;;;;;;;;;;;;;;1.89;51.72;98420.91;6214525;23;19935;-62
2023/02/26 17:39:41;;;;;;;;;;;;;;;1.87;51.98;98420.09;6214415;23;20360;-61
2023/02/26 17:42:14;;;;;;;;;;;;;;;1.87;51.59;98424.44;6213306;23;19935;-61
2023/02/26 17:44:39;;;;;;;;;;;;;;;1.81;53.15;98434.94;6184211;23;19908;-62
2023/02/26 17:47:04;;;;;;;;;;;;;;;1.76;53.01;98431.66;6213849;23;19946;-62
2023/02/26 17:49:30;;;;;;;;;;;;;;;1.71;51.48;98441.28;6213709;23;19908;-62
2023/02/26 17:51:55;;;;;;;;;;;;;;;1.65;51.67;98448.34;6213037;23;19907;-61
2023/02/26 17:54:20;;;;;;;;;;;;;;;1.62;51.40;98445.84;6212180;23;19915;-61
2023/02/26 17:56:45;;;;;;;;;;;;;;;1.59;52.28;98448.50;6212834;23;19915;-61
2023/02/26 17:59:11;;;;;;;;;;;;;;;1.57;53.13;98447.69;6214307;23;19908;-62
2023/02/26 18:01:37;;;;;;;;;;;;;;;1.56;53.20;98460.69;6212666;23;19970;-61
2023/02/26 18:04:02;;;;;;;;;;;;;;;1.52;53.66;98457.34;6187170;23;20256;-62
2023/02/26 18:06:29;;;;;;;;;;;;;;;1.50;53.87;98456.53;6213360;23;19958;-62
2023/02/26 18:08:55;;;;;;;;;;;;;;;1.45;53.21;98463.56;6211732;23;19916;-61
2023/02/26 18:11:24;;;;;;;;;;;;;;;1.42;54.59;98463.66;6187228;23;19912;-61
2023/02/26 18:13:49;;;;;;;;;;;;;;;1.99;70.70;98465.44;6212376;23;20486;-60
2023/02/26 18:16:18;;;;;;;;;;;;;;;1.86;57.67;98467.56;6209197;23;19995;-61
2023/02/26 18:18:43;;;;;;;;;;;;;;;1.74;55.08;98464.47;6185588;23;19966;-56
2023/02/26 18:21:09;;;;;;;;;;;;;;;1.65;54.54;98461.28;6213622;23;19907;-62
2023/02/26 18:23:34;;;;;;;;;;;;;;;1.58;55.11;98467.50;6186791;23;19955;-63
2023/02/26 18:26:01;;;;;;;;;;;;;;;1.48;55.59;98466.06;6213009;23;19915;-59
2023/02/26 18:28:26;;;;;;;;;;;;;;;1.38;54.68;98462.03;6212375;23;19947;-61
2023/02/26 18:30:52;;;;;;;;;;;;;;;1.37;57.60;98462.91;6187125;23;20605;-61
2023/02/26 18:33:17;;;;;;;;;;;;;;;1.31;55.86;98463.09;6187173;23;19918;-60
2023/02/26 18:35:47;;;;;;;;;;;;;;;1.29;55.98;98467.47;6212317;23;19908;-61
2023/02/26 18:38:12;;;;;;;;;;;;;;;1.23;55.33;98459.84;6186781;23;20290;-60
2023/02/26 18:40:38;;;;;;;;;;;;;;;1.21;55.69;98474.56;6212963;23;19982;-61
2023/02/26 18:43:03;;;;;;;;;;;;;;;1.17;55.09;98474.66;6214002;23;19967;-59
2023/02/26 18:45:29;;;;;;;;;;;;;;;1.17;57.47;98482.41;6212938;23;19908;-61
2023/02/26 18:47:55;;;;;;;;;;;;;;;1.13;57.28;98480.75;6213426;23;20225;-60
2023/02/26 18:50:20;;;;;;;;;;;;;;;1.15;56.95;98491.06;6213649;23;19908;-61
2023/02/26 18:52:45;;;;;;;;;;;;;;;1.13;57.07;98483.34;6213891;23;19915;-61
2023/02/26 18:55:11;;;;;;;;;;;;;;;1.22;58.39;98489.19;6186880;23;20328;-63
2023/02/26 18:57:36;;;;;;;;;;;;;;;1.25;57.51;98492.53;6212801;23;20003;-62
2023/02/26 19:00:02;;;;;;;;;;;;;;;1.29;58.63;98498.47;6213041;23;19911;-62
2023/02/26 19:02:27;;;;;;;;;;;;;;;1.34;57.98;98501.75;6186474;23;19982;-62
2023/02/26 19:04:53;;;;;;;;;;;;;;;1.31;56.75;98502.72;6212736;23;20283;-62
2023/02/26 19:07:18;;;;;;;;;;;;;;;1.31;58.56;98514.78;6211966;23;19915;-63
2023/02/26 19:09:43;;;;;;;;;;;;;;;1.29;58.42;98514.81;6187039;23;19908;-62
2023/02/26 19:12:08;;;;;;;;;;;;;;;1.26;58.76;98524.38;6213397;23;19908;-61
2023/02/26 19:14:34;;;;;;;;;;;;;;;1.25;58.87;98526.13;6214051;23;19914;-61
2023/02/26 19:16:59;;;;;;;;;;;;;;;1.24;58.48;98528.72;6213119;23;19908;-63
2023/02/26 19:19:24;;;;;;;;;;;;;;;1.26;60.87;98529.56;6213188;23;19945;-63
2023/02/26 19:21:49;;;;;;;;;;;;;;;1.27;60.15;98526.06;6213328;23;19908;-63
2023/02/26 19:24:14;;;;;;;;;;;;;;;1.23;60.06;98533.06;6185914;23;19908;-62
2023/02/26 19:26:40;;;;;;;;;;;;;;;1.19;59.69;98534.88;6185445;23;19915;-63
2023/02/26 19:29:06;;;;;;;;;;;;;;;1.16;59.89;98534.94;6212641;23;20298;-64
2023/02/26 19:31:31;;;;;;;;;;;;;;;1.15;61.12;98535.84;6186155;23;20330;-59
2023/02/26 19:33:56;;;;;;;;;;;;;;;1.15;61.19;98533.25;6185250;23;19922;-63
2023/02/26 19:36:21;;;;;;;;;;;;;;;1.14;60.30;98536.75;6212383;23;19911;-63
2023/02/26 19:38:49;;;;;;;;;;;;;;;1.08;60.01;98539.47;6213442;23;19935;-62
2023/02/26 19:41:17;;;;;;;;;;;;;;;1.11;61.21;98543.72;6185335;23;19908;-62
2023/02/26 19:43:43;;;;;;;;;;;;;;;1.09;60.49;98548.06;6213203;23;19919;-63
2023/02/26 19:46:08;;;;;;;;;;;;;;;1.05;59.96;98551.63;6211727;23;19912;-63
2023/02/26 19:48:33;;;;;;;;;;;;;;;1.00;60.17;98554.31;6212919;23;19908;-65
2023/02/26 19:50:58;;;;;;;;;;;;;;;0.97;60.24;98554.41;6211995;23;20554;-64
2023/02/26 19:53:24;;;;;;;;;;;;;;;0.98;59.87;98550.06;6187630;23;19908;-64
2023/02/26 19:55:50;;;;;;;;;;;;;;;0.92;59.56;98557.06;6162228;23;19908;-65
2023/02/26 19:58:15;;;;;;;;;;;;;;;0.95;60.96;98549.25;6187032;23;19958;-65
2023/02/26 20:00:41;;;;;;;;;;;;;;;0.95;59.10;98551.00;6211860;23;19908;-65
2023/02/26 20:03:07;;;;;;;;;;;;;;;0.96;61.33;98552.69;6185086;23;19912;-64
2023/02/26 20:05:32;;;;;;;;;;;;;;;0.96;60.41;98552.69;6213627;23;19912;-65
2023/02/26 20:07:57;;;;;;;;;;;;;;;0.95;60.57;98558.72;6161955;23;20236;-64
2023/02/26 20:10:23;;;;;;;;;;;;;;;0.94;60.47;98555.31;6187556;23;20298;-65
2023/02/26 20:12:48;;;;;;;;;;;;;;;0.86;59.28;98567.56;6212659;23;20315;-65
2023/02/26 20:15:14;;;;;;;;;;;;;;;0.89;60.87;98570.06;6186958;23;19936;-65
2023/02/26 20:17:39;;;;;;;;;;;;;;;0.91;60.33;98577.78;6186523;23;19959;-65